Time;durP1;ratioP1;P1;durP2;ratioP2;P2;SDS_P1;SDS_P2;PMS_P1;PMS_P2;Temp;Humidity;BMP_temperature;BMP_pressure;BME280_temperature;BME280_humidity;BME280_pressure;Samples;Min_cycle;Max_cycle;Signal;HPM_P1;HPM_P2
2022/12/09 00:00:36;;;;;;;9.63;4.50;;;;;;;-1.54;100.00;99237.69;7407175;19;20038;-96
2022/12/09 00:03:03;;;;;;;19.55;4.47;;;;;;;-1.30;100.00;99233.09;7409909;19;20054;-93
2022/12/09 00:05:29;;;;;;;9.90;3.22;;;;;;;-1.28;100.00;99232.69;7412586;19;20017;-93
2022/12/09 00:07:55;;;;;;;9.50;3.45;;;;;;;-1.30;100.00;99237.81;7410243;19;20010;-94
2022/12/09 00:10:21;;;;;;;6.05;3.33;;;;;;;-1.19;100.00;99230.25;7409430;19;20328;-94
2022/12/09 00:12:48;;;;;;;1.75;1.65;;;;;;;-1.34;100.00;99229.63;7409519;19;20023;-93
2022/12/09 00:15:14;;;;;;;2.13;1.90;;;;;;;-1.20;100.00;99234.13;7410698;19;20014;-94
2022/12/09 00:17:40;;;;;;;4.40;3.53;;;;;;;-1.07;100.00;99226.94;7412225;19;20030;-95
2022/12/09 00:20:07;;;;;;;2.42;1.52;;;;;;;-0.99;100.00;99220.94;7413583;19;20013;-94
2022/12/09 00:22:33;;;;;;;12.18;5.03;;;;;;;-0.93;100.00;99226.69;7407420;19;20019;-94
2022/12/09 00:24:59;;;;;;;3.03;1.77;;;;;;;-0.75;100.00;99221.75;7412119;19;20015;-94
2022/12/09 00:27:25;;;;;;;2.50;1.98;;;;;;;-1.03;100.00;99224.91;7410994;19;20018;-94
2022/12/09 00:29:51;;;;;;;13.13;3.58;;;;;;;-0.74;100.00;99223.31;7410354;19;20025;-94
2022/12/09 00:32:17;;;;;;;9.98;3.00;;;;;;;-0.69;100.00;99220.06;7409744;19;20019;-94
2022/12/09 00:34:44;;;;;;;4.20;1.98;;;;;;;-0.58;100.00;99222.63;7414105;19;20010;-94
2022/12/09 00:37:10;;;;;;;17.20;5.47;;;;;;;-0.50;100.00;99226.81;7414756;19;20019;-94
2022/12/09 00:39:36;;;;;;;1.85;1.75;;;;;;;-0.45;100.00;99220.84;7414269;19;20006;-94
2022/12/09 00:42:03;;;;;;;3.80;2.47;;;;;;;-0.47;100.00;99221.28;7407317;19;20081;-94
2022/12/09 00:44:29;;;;;;;3.75;1.85;;;;;;;-0.24;100.00;99212.28;7406800;19;20032;-93
2022/12/09 00:46:55;;;;;;;2.58;2.38;;;;;;;-0.25;100.00;99211.50;7405329;19;20019;-94
2022/12/09 00:49:22;;;;;;;8.05;2.92;;;;;;;-0.36;100.00;99200.00;7412553;19;20007;-94
2022/12/09 00:51:48;;;;;;;2.53;1.55;;;;;;;-0.28;100.00;99200.66;7413828;19;20019;-95
2022/12/09 00:54:14;;;;;;;5.15;2.22;;;;;;;-0.30;100.00;99198.31;7417793;19;20014;-93
2022/12/09 00:56:40;;;;;;;3.33;2.53;;;;;;;-0.36;100.00;99196.47;7404519;19;20014;-94
2022/12/09 00:59:07;;;;;;;6.93;2.50;;;;;;;-0.38;100.00;99196.13;7401592;19;20014;-95
2022/12/09 01:01:33;;;;;;;19.65;4.20;;;;;;;-0.45;100.00;99197.00;7398601;19;20015;-96
2022/12/09 01:04:00;;;;;;;3.78;2.90;;;;;;;-0.54;100.00;99196.78;7406865;19;20007;-91
2022/12/09 01:06:27;;;;;;;2.95;2.45;;;;;;;-0.60;100.00;99190.25;7398351;19;20021;-93
2022/12/09 01:08:53;;;;;;;2.60;2.38;;;;;;;-0.65;100.00;99196.19;7400073;19;20081;-94
2022/12/09 01:11:25;;;;;;;1.40;0.88;;;;;;;-0.72;100.00;99199.06;7400172;19;20010;-93
2022/12/09 01:13:52;;;;;;;6.43;2.67;;;;;;;-0.77;100.00;99196.78;7401687;19;20024;-93
2022/12/09 01:16:23;;;;;;;4.30;2.55;;;;;;;-0.82;100.00;99195.31;7403876;19;20460;-93
2022/12/09 01:18:51;;;;;;;34.85;4.22;;;;;;;-0.82;100.00;99199.97;7401662;19;20011;-93
2022/12/09 01:21:17;;;;;;;2.50;1.95;;;;;;;-0.75;100.00;99194.41;7399930;19;20460;-95
2022/12/09 01:23:44;;;;;;;2.97;2.35;;;;;;;-0.78;100.00;99195.25;7398470;19;20022;-94
2022/12/09 01:26:10;;;;;;;11.85;2.58;;;;;;;-0.83;100.00;99191.03;7397019;19;20021;-93
2022/12/09 01:28:38;;;;;;;14.88;2.22;;;;;;;-1.08;100.00;99198.84;7400743;19;20088;-93
2022/12/09 01:31:15;;;;;;;8.50;3.08;;;;;;;-1.16;100.00;99191.16;7400711;19;20018;-93
2022/12/09 01:33:43;;;;;;;3.20;2.92;;;;;;;-1.29;100.00;99192.91;7400043;19;20025;-93
2022/12/09 01:36:14;;;;;;;3.05;2.30;;;;;;;-1.42;100.00;99186.47;7401167;19;20014;-94
2022/12/09 01:38:41;;;;;;;3.17;2.42;;;;;;;-1.47;100.00;99193.16;7400773;19;20007;-94
2022/12/09 01:41:07;;;;;;;3.22;2.17;;;;;;;-1.54;100.00;99188.56;7398631;19;20026;-93
2022/12/09 01:43:33;;;;;;;2.22;2.13;;;;;;;-1.63;100.00;99191.03;7396677;19;20025;-93
2022/12/09 01:45:59;;;;;;;1.52;1.33;;;;;;;-1.69;100.00;99183.72;7401823;19;20018;-93
2022/12/09 01:48:29;;;;;;;2.80;1.70;;;;;;;-1.75;100.00;99182.59;7398026;19;20010;-93
2022/12/09 01:51:02;;;;;;;4.50;2.05;;;;;;;-1.83;100.00;99194.78;7399808;19;20014;-93
2022/12/09 01:53:36;;;;;;;2.80;2.13;;;;;;;-1.82;100.00;99199.84;7399919;19;20023;-93
2022/12/09 01:56:07;;;;;;;3.60;1.75;;;;;;;-1.99;100.00;99200.81;7399340;19;20037;-93
2022/12/09 01:58:34;;;;;;;1.75;1.65;;;;;;;-2.09;100.00;99201.72;7399143;19;20018;-93
2022/12/09 02:01:01;;;;;;;3.85;2.22;;;;;;;-2.20;100.00;99200.28;7395915;19;20367;-93
2022/12/09 02:03:27;;;;;;;1.83;1.73;;;;;;;-2.27;100.00;99206.59;7397892;19;20007;-94
2022/12/09 02:05:53;;;;;;;6.03;1.85;;;;;;;-2.36;100.00;99203.59;7397617;19;20019;-93
2022/12/09 02:08:20;;;;;;;1.25;1.25;;;;;;;-2.39;100.00;99198.94;7398833;19;20007;-93
2022/12/09 02:11:20;;;;;;;5.50;1.38;;;;;;;-2.36;100.00;99203.59;7399109;19;20010;-94
2022/12/09 02:14:00;;;;;;;3.85;1.73;;;;;;;-2.22;100.00;99191.72;7398230;19;20011;-93
2022/12/09 02:16:31;;;;;;;6.45;2.67;;;;;;;-2.32;100.00;99205.06;7402826;19;20020;-93
2022/12/09 02:19:25;;;;;;;2.05;1.95;;;;;;;-2.44;100.00;99202.09;7398787;19;20117;-94
2022/12/09 02:21:57;;;;;;;1.90;1.80;;;;;;;-2.45;100.00;99206.00;7397740;19;20014;-93
2022/12/09 02:25:03;;;;;;;1.42;1.42;;;;;;;-2.48;100.00;99198.63;7398686;19;20015;-94
2022/12/09 02:27:41;;;;;;;13.95;3.03;;;;;;;-2.50;100.00;99207.22;7395308;19;20010;-94
2022/12/09 02:30:16;;;;;;;1.23;1.17;;;;;;;-2.45;100.00;99206.00;7402235;19;20039;-93
2022/12/09 02:32:48;;;;;;;1.50;1.13;;;;;;;-2.38;100.00;99203.97;7398767;19;20040;-93
2022/12/09 02:36:01;;;;;;;1.80;1.70;;;;;;;-2.28;100.00;99205.06;7398492;19;20015;-94
2022/12/09 02:38:31;;;;;;;2.13;1.95;;;;;;;-2.45;100.00;99195.84;7396493;19;20044;-94
2022/12/09 02:41:20;;;;;;;0.65;0.65;;;;;;;-2.52;100.00;99200.63;7393886;19;20532;-94
2022/12/09 02:43:53;;;;;;;0.90;0.90;;;;;;;-2.58;100.00;99208.47;7396330;19;20015;-93
2022/12/09 02:46:26;;;;;;;1.63;1.25;;;;;;;-2.65;100.00;99196.84;7399285;19;20017;-94
2022/12/09 02:48:57;;;;;;;5.28;1.15;;;;;;;-2.69;100.00;99198.81;7395614;19;20078;-94
2022/12/09 02:51:27;;;;;;;4.05;1.77;;;;;;;-2.74;100.00;99191.06;7397792;19;20019;-94
2022/12/09 02:54:02;;;;;;;0.85;0.85;;;;;;;-2.80;100.00;99192.69;7397194;19;20029;-94
2022/12/09 02:56:29;;;;;;;6.00;2.90;;;;;;;-2.83;100.00;99197.00;7396403;19;20017;-95
2022/12/09 02:58:55;;;;;;;8.45;1.27;;;;;;;-2.84;100.00;99194.69;7396523;19;20011;-94
2022/12/09 03:01:44;;;;;;;15.48;2.10;;;;;;;-2.85;100.00;99193.09;7395186;19;20014;-94
2022/12/09 03:04:19;;;;;;;3.28;1.88;;;;;;;-2.86;100.00;99189.63;7396724;19;20029;-94
2022/12/09 03:07:02;;;;;;;3.00;1.27;;;;;;;-2.56;100.00;99188.97;7396499;19;20010;-94
2022/12/09 03:09:33;;;;;;;0.95;0.95;;;;;;;-2.42;100.00;99188.81;7399267;19;20018;-94
2022/12/09 03:12:06;;;;;;;1.98;1.83;;;;;;;-2.52;100.00;99189.72;7394980;19;20029;-94
2022/12/09 03:14:39;;;;;;;4.05;1.83;;;;;;;-2.63;100.00;99183.59;7397978;19;20527;-94
2022/12/09 03:17:20;;;;;;;0.25;0.25;;;;;;;-2.75;100.00;99178.66;7397179;19;20014;-94
2022/12/09 03:19:51;;;;;;;0.98;0.90;;;;;;;-2.81;100.00;99183.75;7400204;19;20010;-93
2022/12/09 03:22:23;;;;;;;3.65;1.48;;;;;;;-2.90;100.00;99175.25;7397688;19;20496;-94
2022/12/09 03:24:56;;;;;;;19.63;2.03;;;;;;;-2.96;100.00;99176.84;7398145;19;20837;-92
2022/12/09 03:27:31;;;;;;;0.45;0.45;;;;;;;-3.02;100.00;99178.47;7398774;19;20022;-94
2022/12/09 03:29:59;;;;;;;0.93;0.93;;;;;;;-3.08;100.00;99175.41;7400155;19;20011;-94
2022/12/09 03:32:29;;;;;;;1.20;1.20;;;;;;;-3.05;100.00;99173.06;7395162;19;20006;-94
2022/12/09 03:35:02;;;;;;;4.23;2.03;;;;;;;-3.04;100.00;99174.59;7394727;19;20035;-94
2022/12/09 03:37:31;;;;;;;4.13;1.50;;;;;;;-3.08;100.00;99169.19;7395365;19;20014;-94
2022/12/09 03:39:59;;;;;;;0.95;0.95;;;;;;;-3.10;100.00;99177.72;7399445;19;20010;-94
2022/12/09 03:42:32;;;;;;;1.40;1.40;;;;;;;-3.17;100.00;99174.31;7396341;19;20014;-92
2022/12/09 03:45:04;;;;;;;1.88;1.77;;;;;;;-3.25;100.00;99168.13;7397208;19;20081;-95
2022/12/09 03:47:32;;;;;;;2.70;2.47;;;;;;;-3.32;100.00;99170.91;7396494;19;20015;-94
2022/12/09 03:49:58;;;;;;;1.27;1.27;;;;;;;-3.35;100.00;99166.25;7398631;19;20022;-94
2022/12/09 03:52:31;;;;;;;1.02;0.95;;;;;;;-3.42;100.00;99166.28;7393659;19;20018;-94
2022/12/09 03:55:06;;;;;;;1.48;1.48;;;;;;;-3.49;100.00;99160.13;7395376;19;20177;-94
2022/12/09 03:57:36;;;;;;;4.05;1.63;;;;;;;-3.56;100.00;99155.50;7394362;19;20009;-94
2022/12/09 04:00:04;;;;;;;0.75;0.75;;;;;;;-3.00;100.00;99153.53;7399526;19;20019;-94
2022/12/09 04:02:39;;;;;;;1.90;1.50;;;;;;;-3.08;100.00;99158.28;7395724;19;20010;-94
2022/12/09 04:05:05;;;;;;;0.85;0.85;;;;;;;-3.14;100.00;99157.94;7396008;19;20011;-94
2022/12/09 04:07:31;;;;;;;1.40;1.33;;;;;;;-3.19;100.00;99158.38;7395959;19;20014;-94
2022/12/09 04:09:57;;;;;;;1.60;1.13;;;;;;;-3.24;100.00;99149.84;7397101;19;20033;-94
2022/12/09 04:12:23;;;;;;;3.67;1.45;;;;;;;-3.24;100.00;99149.84;7393931;19;20049;-94
2022/12/09 04:14:50;;;;;;;2.55;1.20;;;;;;;-3.24;100.00;99158.00;7394430;19;20074;-94
2022/12/09 04:17:16;;;;;;;2.40;1.58;;;;;;;-3.23;100.00;99156.84;7394749;19;20015;-95
2022/12/09 04:19:42;;;;;;;0.80;0.80;;;;;;;-3.40;100.00;99147.63;7397887;19;20037;-94
2022/12/09 04:22:08;;;;;;;1.85;1.52;;;;;;;-3.54;100.00;99152.38;7396191;19;20523;-94
2022/12/09 04:24:35;;;;;;;1.23;1.23;;;;;;;-3.59;100.00;99145.41;7402946;19;20348;-94
2022/12/09 04:27:01;;;;;;;1.27;1.25;;;;;;;-3.23;100.00;99152.16;7402894;19;20034;-94
2022/12/09 04:29:27;;;;;;;1.35;1.05;;;;;;;-3.17;100.00;99150.59;7405188;19;20026;-94
2022/12/09 04:31:53;;;;;;;1.05;1.05;;;;;;;-3.20;100.00;99156.81;7401223;19;20062;-94
2022/12/09 04:34:19;;;;;;;1.52;1.27;;;;;;;-3.29;100.00;99153.75;7397290;19;20478;-94
2022/12/09 04:36:47;;;;;;;1.02;1.02;;;;;;;-3.35;100.00;99155.38;7399349;19;20472;-94
2022/12/09 04:39:13;;;;;;;2.33;0.85;;;;;;;-3.34;100.00;99156.16;7409794;19;20025;-94
2022/12/09 04:41:39;;;;;;;2.92;1.42;;;;;;;-3.42;100.00;99144.53;7414824;19;20014;-94
2022/12/09 04:44:06;;;;;;;0.75;0.75;;;;;;;-3.49;100.00;99150.03;7414335;19;20021;-93
2022/12/09 04:46:32;;;;;;;9.38;2.47;;;;;;;-3.56;100.00;99149.28;7410548;19;20070;-94
2022/12/09 04:48:58;;;;;;;1.25;1.15;;;;;;;-3.59;100.00;99155.53;7405540;19;20055;-94
2022/12/09 04:51:24;;;;;;;10.50;1.92;;;;;;;-3.65;100.00;99157.91;7402319;19;20464;-93
2022/12/09 04:53:50;;;;;;;2.08;1.52;;;;;;;-3.71;100.00;99158.72;7401916;19;20007;-93
2022/12/09 04:56:18;;;;;;;7.18;2.60;;;;;;;-3.70;100.00;99154.81;7400530;19;20809;-94
2022/12/09 04:58:45;;;;;;;0.75;0.75;;;;;;;-3.66;100.00;99161.78;7402166;19;20018;-94
2022/12/09 05:01:14;;;;;;;1.00;1.00;;;;;;;-3.61;100.00;99157.88;7401542;19;20010;-94
2022/12/09 05:03:41;;;;;;;4.47;3.28;;;;;;;-3.39;100.00;99159.28;7403491;19;20027;-94
2022/12/09 05:06:11;;;;;;;3.08;2.78;;;;;;;-3.53;100.00;99164.84;7403944;19;20025;-94
2022/12/09 05:08:38;;;;;;;5.45;1.90;;;;;;;-3.58;100.00;99163.31;7403379;19;20022;-94
2022/12/09 05:11:05;;;;;;;1.95;1.25;;;;;;;-3.57;100.00;99170.28;7399832;19;20015;-94
2022/12/09 05:13:31;;;;;;;1.10;1.10;;;;;;;-3.61;100.00;99164.09;7398202;19;20014;-93
2022/12/09 05:16:03;;;;;;;1.67;1.58;;;;;;;-3.71;100.00;99150.53;7401096;19;20011;-93
2022/12/09 05:18:30;;;;;;;1.63;1.63;;;;;;;-3.75;100.00;99158.75;7400445;19;20377;-95
2022/12/09 05:20:56;;;;;;;1.83;1.75;;;;;;;-3.82;100.00;99156.03;7401287;19;20018;-94
2022/12/09 05:23:22;;;;;;;0.70;0.70;;;;;;;-3.88;100.00;99157.63;7402636;19;20031;-94
2022/12/09 05:25:49;;;;;;;1.10;1.02;;;;;;;-3.91;100.00;99151.03;7402007;19;20613;-94
2022/12/09 05:28:15;;;;;;;1.75;1.63;;;;;;;-3.91;100.00;99161.13;7404235;19;20018;-95
2022/12/09 05:30:41;;;;;;;1.80;1.75;;;;;;;-3.94;100.00;99167.34;7398370;19;20023;-94
2022/12/09 05:33:07;;;;;;;2.35;1.73;;;;;;;-3.94;100.00;99172.78;7401950;19;20018;-95
2022/12/09 05:35:33;;;;;;;1.00;1.00;;;;;;;-3.99;100.00;99156.91;7397929;19;20333;-94
2022/12/09 05:38:00;;;;;;;2.13;1.95;;;;;;;-4.00;100.00;99163.50;7400749;19;20356;-94
2022/12/09 05:40:26;;;;;;;8.05;2.15;;;;;;;-4.08;100.00;99162.00;7404317;19;20491;-94
2022/12/09 05:42:52;;;;;;;1.95;1.92;;;;;;;-4.06;100.00;99159.66;7400928;19;20019;-94
2022/12/09 05:45:18;;;;;;;14.13;3.35;;;;;;;-4.07;100.00;99152.69;7403135;19;20014;-93
2022/12/09 05:47:44;;;;;;;0.20;0.20;;;;;;;-4.05;100.00;99150.34;7401076;19;20006;-94
2022/12/09 05:50:10;;;;;;;1.10;1.10;;;;;;;-4.03;100.00;99165.06;7399823;19;20073;-94
2022/12/09 05:52:37;;;;;;;1.35;1.30;;;;;;;-4.00;100.00;99158.06;7399038;19;20029;-93
2022/12/09 05:55:05;;;;;;;2.08;1.35;;;;;;;-4.02;100.00;99160.41;7400565;19;20014;-94
2022/12/09 05:57:35;;;;;;;3.40;2.78;;;;;;;-4.04;100.00;99162.75;7400974;19;20043;-94
2022/12/09 06:00:03;;;;;;;1.52;1.42;;;;;;;-4.04;100.00;99163.53;7403232;19;20022;-93
2022/12/09 06:02:38;;;;;;;1.52;1.45;;;;;;;-4.09;100.00;99155.00;7406907;19;20033;-94
2022/12/09 06:05:04;;;;;;;1.45;1.35;;;;;;;-4.11;100.00;99162.78;7407016;19;20015;-96
2022/12/09 06:07:30;;;;;;;1.77;1.67;;;;;;;-4.10;100.00;99161.59;7404750;19;20085;-96
2022/12/09 06:09:57;;;;;;;1.58;1.58;;;;;;;-4.12;100.00;99161.22;7410526;19;20006;-96
2022/12/09 06:12:23;;;;;;;0.40;0.40;;;;;;;-4.13;100.00;99156.94;7408507;19;20038;-96
2022/12/09 06:14:49;;;;;;;1.35;1.35;;;;;;;-4.18;100.00;99151.94;7411499;19;20448;-96
2022/12/09 06:17:15;;;;;;;1.98;1.90;;;;;;;-4.19;100.00;99164.75;7415695;19;20010;-96
2022/12/09 06:19:41;;;;;;;1.63;1.17;;;;;;;-4.23;100.00;99161.28;7420201;19;20010;-95
2022/12/09 06:22:07;;;;;;;1.60;1.58;;;;;;;-4.22;100.00;99164.78;7424122;19;20007;-96
2022/12/09 06:24:34;;;;;;;9.95;2.17;;;;;;;-4.25;100.00;99169.06;7423066;19;20022;-95
2022/12/09 06:27:01;;;;;;;5.47;1.67;;;;;;;-4.29;100.00;99162.06;7426306;19;20017;-96
2022/12/09 06:29:27;;;;;;;3.85;3.47;;;;;;;-4.25;100.00;99162.84;7422408;19;20007;-96
2022/12/09 06:31:53;;;;;;;2.78;2.58;;;;;;;-4.29;100.00;99162.06;7428497;19;20063;-96
2022/12/09 06:34:19;;;;;;;2.25;2.15;;;;;;;-4.36;100.00;99156.66;7424438;19;20046;-96
2022/12/09 06:36:46;;;;;;;1.27;1.20;;;;;;;-4.47;100.00;99159.41;7424208;19;20050;-95
2022/12/09 06:39:12;;;;;;;1.15;1.15;;;;;;;-4.47;100.00;99151.25;7423671;19;20006;-96
2022/12/09 06:41:44;;;;;;;1.77;1.65;;;;;;;-4.52;100.00;99148.13;7424839;19;20007;-96
2022/12/09 06:44:11;;;;;;;2.53;2.15;;;;;;;-4.56;100.00;99153.59;7428260;19;20003;-96
2022/12/09 06:46:37;;;;;;;3.15;1.80;;;;;;;-4.55;100.00;99154.38;7427834;19;20046;-96
2022/12/09 06:49:04;;;;;;;2.75;2.03;;;;;;;-4.57;100.00;99156.72;7427003;19;20022;-96
2022/12/09 06:51:30;;;;;;;2.00;1.90;;;;;;;-4.60;100.00;99163.69;7425963;19;20034;-96
2022/12/09 06:53:56;;;;;;;1.08;1.02;;;;;;;-4.63;100.00;99157.09;7426407;19;20042;-96
2022/12/09 06:56:22;;;;;;;3.55;2.72;;;;;;;-4.65;100.00;99161.38;7428563;19;20010;-96
2022/12/09 06:58:49;;;;;;;1.52;1.52;;;;;;;-4.65;100.00;99161.38;7426355;19;20015;-96
2022/12/09 07:01:19;;;;;;;2.25;1.85;;;;;;;-4.66;100.00;99163.31;7427992;19;20445;-96
2022/12/09 07:03:47;;;;;;;1.98;1.90;;;;;;;-4.68;100.00;99157.50;7427877;19;20026;-96
2022/12/09 07:06:32;;;;;;;1.98;1.83;;;;;;;-4.67;100.00;99156.34;7426922;19;20015;-96
2022/12/09 07:09:01;;;;;;;1.10;1.10;;;;;;;-4.63;100.00;99153.59;7427522;19;20047;-96
2022/12/09 07:11:28;;;;;;;3.67;3.30;;;;;;;-4.67;100.00;99150.13;7429814;19;20006;-96
2022/12/09 07:13:54;;;;;;;2.95;1.52;;;;;;;-4.71;100.00;99152.84;7424179;19;20110;-96
2022/12/09 07:16:20;;;;;;;2.45;2.35;;;;;;;-4.65;100.00;99154.00;7421533;19;20448;-95
2022/12/09 07:18:46;;;;;;;1.77;1.67;;;;;;;-4.66;100.00;99155.16;7419654;19;20029;-96
2022/12/09 07:21:16;;;;;;;2.20;1.88;;;;;;;-4.66;100.00;99154.41;7421365;19;20037;-95
2022/12/09 07:23:42;;;;;;;3.13;2.83;;;;;;;-4.78;100.00;99152.06;7415682;19;20014;-96
2022/12/09 07:26:08;;;;;;;13.63;4.82;;;;;;;-4.79;100.00;99151.31;7419360;19;20007;-96
2022/12/09 07:28:38;;;;;;;29.75;6.72;;;;;;;-4.32;100.00;99152.75;7420368;19;20021;-96
2022/12/09 07:31:05;;;;;;;24.90;9.45;;;;;;;-3.74;100.00;99143.94;7418586;19;20024;-96
2022/12/09 07:33:31;;;;;;;72.00;18.73;;;;;;;-4.33;100.00;99145.00;7420530;19;20043;-96
2022/12/09 07:35:58;;;;;;;57.03;14.25;;;;;;;-4.27;100.00;99143.44;7422770;19;20025;-96
2022/12/09 07:38:25;;;;;;;19.83;10.70;;;;;;;-3.96;100.00;99147.94;7418710;19;20027;-96
2022/12/09 07:40:52;;;;;;;52.25;10.93;;;;;;;-4.39;100.00;99143.84;7419865;19;20021;-96
2022/12/09 07:43:18;;;;;;;10.00;6.15;;;;;;;-4.54;100.00;99139.59;7417807;19;20043;-96
2022/12/09 07:45:44;;;;;;;13.50;7.70;;;;;;;-4.58;100.00;99138.84;7412022;19;20014;-96
2022/12/09 07:48:11;;;;;;;3.55;2.85;;;;;;;-4.63;100.00;99142.75;7422103;19;20010;-96
2022/12/09 07:50:37;;;;;;;13.65;7.13;;;;;;;-4.85;100.00;99142.00;7420975;19;20027;-95
2022/12/09 07:53:03;;;;;;;7.05;3.90;;;;;;;-5.03;100.00;99141.25;7423695;19;20035;-96
2022/12/09 07:55:29;;;;;;;17.13;4.65;;;;;;;-5.06;100.00;99136.59;7426214;19;20014;-96
2022/12/09 07:57:56;;;;;;;15.80;5.40;;;;;;;-4.84;100.00;99143.56;7426709;19;20002;-96
2022/12/09 08:00:22;;;;;;;10.18;4.82;;;;;;;-4.83;100.00;99144.34;7430981;19;20036;-96
2022/12/09 08:02:48;;;;;;;23.02;6.00;;;;;;;-4.80;100.00;99133.47;7429032;19;20030;-96
2022/12/09 08:05:14;;;;;;;6.72;3.83;;;;;;;-4.84;100.00;99143.56;7426268;19;20029;-96
2022/12/09 08:07:40;;;;;;;8.98;4.10;;;;;;;-4.94;100.00;99138.94;7413220;19;20010;-95
2022/12/09 08:10:07;;;;;;;4.28;3.50;;;;;;;-5.08;100.00;99138.94;7416503;19;20018;-96
2022/12/09 08:12:33;;;;;;;5.20;3.08;;;;;;;-5.13;100.00;99130.41;7412186;19;20006;-96
2022/12/09 08:14:59;;;;;;;3.65;2.72;;;;;;;-4.86;100.00;99131.53;7412033;19;20014;-96
2022/12/09 08:17:27;;;;;;;2.60;2.35;;;;;;;-4.87;100.00;99128.03;7418713;19;20582;-96
2022/12/09 08:19:54;;;;;;;2.65;2.45;;;;;;;-4.92;100.00;99125.75;7413336;19;20086;-96
2022/12/09 08:22:22;;;;;;;2.28;1.85;;;;;;;-4.78;100.00;99130.34;7415848;19;20010;-95
2022/12/09 08:24:48;;;;;;;8.98;2.70;;;;;;;-5.19;100.00;99124.59;7433413;19;20010;-96
2022/12/09 08:27:14;;;;;;;1.38;1.38;;;;;;;-5.29;100.00;99138.94;7426089;19;20024;-95
2022/12/09 08:29:40;;;;;;;1.08;1.00;;;;;;;-4.93;100.00;99135.03;7417505;19;20014;-95
2022/12/09 08:32:06;;;;;;;15.35;3.42;;;;;;;-3.58;100.00;99130.66;7415976;19;20016;-94
2022/12/09 08:34:32;;;;;;;2.97;2.80;;;;;;;-3.74;100.00;99133.06;7415498;19;20011;-95
2022/12/09 08:36:59;;;;;;;0.63;0.63;;;;;;;-4.32;100.00;99132.94;7413101;19;20641;-95
2022/12/09 08:39:25;;;;;;;3.08;2.88;;;;;;;-4.58;100.00;99134.19;7414167;19;20021;-95
2022/12/09 08:41:51;;;;;;;3.40;2.60;;;;;;;-4.72;100.00;99151.28;7412687;19;20014;-93
2022/12/09 08:44:18;;;;;;;2.15;2.05;;;;;;;-4.59;100.00;99140.03;7398913;19;20015;-92
2022/12/09 08:46:49;;;;;;;13.48;2.97;;;;;;;-4.96;100.00;99135.06;7406700;19;20527;-89
2022/12/09 08:49:18;;;;;;;2.47;2.33;;;;;;;-5.00;100.00;99139.72;7418918;19;20015;-93
2022/12/09 08:51:46;;;;;;;8.27;2.85;;;;;;;-5.07;100.00;99135.06;7407953;19;20023;-89
2022/12/09 08:54:12;;;;;;;1.58;1.02;;;;;;;-4.98;100.00;99131.94;7407621;19;20011;-96
2022/12/09 08:56:39;;;;;;;7.75;4.47;;;;;;;-4.91;100.00;99143.56;7403879;19;20017;-87
2022/12/09 08:59:05;;;;;;;7.80;3.03;;;;;;;-4.91;100.00;99137.34;7398730;19;20017;-86
2022/12/09 09:01:33;;;;;;;6.85;3.22;;;;;;;-4.97;100.00;99134.28;7399402;19;20375;-88
2022/12/09 09:04:05;;;;;;;6.13;4.63;;;;;;;-5.05;100.00;99138.16;7400881;19;20014;-89
2022/12/09 09:06:31;;;;;;;3.70;2.92;;;;;;;-4.90;100.00;99134.28;7400849;19;20017;-90
2022/12/09 09:08:57;;;;;;;4.68;3.42;;;;;;;-4.84;100.00;99131.91;7406304;19;20011;-84
2022/12/09 09:11:24;;;;;;;2.58;1.77;;;;;;;-4.68;100.00;99140.44;7397499;19;20018;-84
2022/12/09 09:13:50;;;;;;;0.60;0.60;;;;;;;-4.53;100.00;99136.53;7397494;19;20007;-84
2022/12/09 09:16:19;;;;;;;1.42;1.42;;;;;;;-4.70;100.00;99148.97;7400914;19;20035;-84
2022/12/09 09:18:46;;;;;;;0.75;0.75;;;;;;;-4.80;100.00;99149.75;7398960;19;20023;-85
2022/12/09 09:21:15;;;;;;;16.00;4.10;;;;;;;-4.82;100.00;99140.44;7396718;19;20015;-85
2022/12/09 09:23:42;;;;;;;2.58;2.03;;;;;;;-4.80;100.00;99147.03;7398080;19;20014;-84
2022/12/09 09:26:20;;;;;;;0.57;0.57;;;;;;;-4.75;100.00;99148.59;7398405;19;20010;-84
2022/12/09 09:28:48;;;;;;;1.83;1.73;;;;;;;-4.72;100.00;99145.84;7398955;19;20027;-85
2022/12/09 09:31:17;;;;;;;1.73;1.73;;;;;;;-4.66;100.00;99147.00;7397942;19;20070;-85
2022/12/09 09:33:43;;;;;;;7.28;3.05;;;;;;;-4.62;100.00;99139.66;7395030;19;20792;-84
2022/12/09 09:36:19;;;;;;;20.48;3.83;;;;;;;-4.40;100.00;99145.03;7397062;19;20014;-85
2022/12/09 09:38:46;;;;;;;2.47;2.28;;;;;;;-4.49;100.00;99141.94;7397928;19;20006;-85
2022/12/09 09:41:37;;;;;;;4.40;2.03;;;;;;;-4.16;100.00;99144.91;7399387;19;20011;-86
2022/12/09 09:44:21;;;;;;;13.23;3.47;;;;;;;-3.81;100.00;99138.53;7400283;19;20110;-87
2022/12/09 09:46:49;;;;;;;1.27;1.27;;;;;;;-3.85;100.00;99137.78;7398572;19;20262;-85
2022/12/09 09:49:35;;;;;;;2.95;1.75;;;;;;;-3.81;100.00;99133.09;7401541;19;20014;-86
2022/12/09 09:52:23;;;;;;;3.25;2.50;;;;;;;-3.67;100.00;99135.75;7396917;19;20773;-86
2022/12/09 09:54:50;;;;;;;1.17;1.13;;;;;;;-3.36;100.00;99132.06;7398482;19;20019;-87
2022/12/09 09:57:27;;;;;;;0.55;0.55;;;;;;;-3.37;100.00;99135.16;7396297;19;20036;-87
2022/12/09 10:00:04;;;;;;;3.42;1.40;;;;;;;-3.36;100.00;99129.34;7401014;19;20010;-87
2022/12/09 10:03:13;;;;;;;7.45;2.83;;;;;;;-3.33;100.00;99127.75;7398792;19;20010;-86
2022/12/09 10:05:46;;;;;;;4.35;3.47;;;;;;;-3.33;100.00;99125.81;7398680;19;20090;-87
2022/12/09 10:08:27;;;;;;;9.18;2.78;;;;;;;-3.33;100.00;99119.56;7399543;19;20540;-87
2022/12/09 10:11:18;;;;;;;2.97;2.60;;;;;;;-3.31;100.00;99117.22;7399541;19;20014;-86
2022/12/09 10:14:03;;;;;;;1.53;1.43;;;;;;;-3.25;100.00;99124.56;7398744;19;20017;-87
2022/12/09 10:16:43;;;;;;;29.83;5.13;;;;;;;-3.20;100.00;99118.69;7402954;19;20041;-82
2022/12/09 10:19:14;;;;;;;4.45;3.80;;;;;;;-3.14;100.00;99117.09;7395107;19;20444;-90
2022/12/09 10:21:43;;;;;;;10.57;3.85;;;;;;;-3.06;100.00;99123.25;7396048;19;20037;-85
2022/12/09 10:24:31;;;;;;;2.05;1.90;;;;;;;-2.99;100.00;99116.97;7395816;19;20055;-85
2022/12/09 10:27:04;;;;;;;4.07;3.78;;;;;;;-2.91;100.00;99118.47;7397067;19;20392;-84
2022/12/09 10:29:54;;;;;;;5.93;3.03;;;;;;;-2.82;100.00;99121.50;7399628;19;20487;-85
2022/12/09 10:32:23;;;;;;;3.67;2.70;;;;;;;-2.73;100.00;99119.81;7393879;19;20027;-86
2022/12/09 10:34:49;;;;;;;7.97;5.00;;;;;;;-2.61;100.00;99113.88;7393166;19;20015;-86
2022/12/09 10:37:21;;;;;;;10.35;3.35;;;;;;;-2.51;100.00;99114.94;7394849;19;20051;-86
2022/12/09 10:39:52;;;;;;;15.90;2.95;;;;;;;-2.44;100.00;99114.84;7396744;19;20019;-86
2022/12/09 10:45:07;;;;;;;14.32;3.28;;;;;;;-2.25;100.00;99106.06;7399050;19;20022;-86
2022/12/09 10:47:33;;;;;;;14.18;3.72;;;;;;;-2.24;100.00;99101.38;7396663;19;20011;-87
2022/12/09 10:49:59;;;;;;;2.63;2.33;;;;;;;-1.98;100.00;99097.94;7399482;19;20085;-85
2022/12/09 10:52:35;;;;;;;4.93;3.30;;;;;;;-2.09;100.00;99098.09;7394904;19;20010;-86
2022/12/09 10:55:01;;;;;;;2.30;1.98;;;;;;;-2.16;100.00;99089.97;7395022;19;20025;-86
2022/12/09 10:57:29;;;;;;;1.40;1.30;;;;;;;-2.08;100.00;99087.94;7394261;19;20022;-86
2022/12/09 11:00:05;;;;;;;5.10;2.25;;;;;;;-1.58;100.00;99083.31;7398847;19;20021;-86
2022/12/09 11:02:32;;;;;;;3.17;2.28;;;;;;;-1.55;100.00;99077.06;7392699;19;20051;-86
2022/12/09 11:05:27;;;;;;;10.25;1.95;;;;;;;-1.42;100.00;99085.44;7392912;19;20017;-87
2022/12/09 11:07:56;;;;;;;2.03;1.30;;;;;;;-1.35;100.00;99082.59;7396990;19;20014;-87
2022/12/09 11:10:25;;;;;;;2.38;1.35;;;;;;;-1.27;100.00;99084.03;7395060;19;20022;-86
2022/12/09 11:13:16;;;;;;;6.65;1.80;;;;;;;-1.10;100.00;99081.00;7393356;19;20015;-86
2022/12/09 11:15:48;;;;;;;0.80;0.80;;;;;;;-0.97;100.00;99083.91;7391877;19;20041;-87
2022/12/09 11:18:23;;;;;;;19.67;2.10;;;;;;;-0.91;100.00;99093.19;7389312;19;20122;-87
2022/12/09 11:21:01;;;;;;;2.25;1.45;;;;;;;-0.78;100.00;99096.84;7385845;19;20078;-87
2022/12/09 11:23:28;;;;;;;5.97;4.38;;;;;;;-0.35;100.00;99099.56;7389290;19;20019;-86
2022/12/09 11:25:54;;;;;;;6.63;1.85;;;;;;;-0.49;100.00;99100.59;7388350;19;20045;-86
2022/12/09 11:28:22;;;;;;;3.63;2.92;;;;;;;-0.65;100.00;99092.28;7389946;19;20054;-86
2022/12/09 11:30:52;;;;;;;3.10;2.85;;;;;;;-0.56;100.00;99087.06;7386474;19;20369;-87
2022/12/09 11:33:33;;;;;;;1.08;1.08;;;;;;;-0.01;100.00;99095.34;7384357;19;20019;-87
2022/12/09 11:36:04;;;;;;;2.30;2.10;;;;;;;-0.01;100.00;99106.28;7387255;19;20036;-87
2022/12/09 11:38:39;;;;;;;2.33;1.77;;;;;;;-0.05;100.00;99102.09;7388602;19;20018;-87